PWSweather.com
Personal Weather Stations
Station Observations
KOHCLEVE171
Cleveland, OH

Cleveland, OH

Lat: 41.48646164, Lon: -81.46408081

Elevation: 1059

Station Type:

High Low Average
Temperature 55.4°F13.0°C 38.5°F3.6°C 48.2°F9.0°C
Dew Point 48.9°F9.4°C 30.9°F-0.6°C 43.9°F6.6°C
Winds 10.5 mph 16.9 kmh 0.2 mph 0.3 kmh 4.0 mph SW6.4 kmh SW
Wind Gusts 22.1 mph35.6 kmh 1.1 mph1.8 kmh 8.0 mph12.9 kmh
Humidity 94% 73% 85%
Pressure 29.85 in1010.8 mb 29.58 in1001.7 mb -
Precipitation 0.70 in17.8 mm - -
Hour Temp Dew Point Humidity Winds Wind Gusts Pressure Precip Precip Rate Daily Precip Total
12:04 AM 52.2°F11.2°C 45.9°F7.7°C 79% 4.9 mph S7.9 kmh S 7.6 mph12.2 kmh 29.81 in1009.5 mb 0.00 in0.0 mm 0.00 in0.0 mm 0.21 in5.3 mm
12:09 AM 52.2°F11.2°C 45.9°F7.7°C 79% 7.6 mph SW12.2 kmh SW 19.0 mph30.6 kmh 29.81 in1009.5 mb 0.00 in0.0 mm 0.00 in0.0 mm 0.21 in5.3 mm
12:14 AM 52.3°F11.3°C 46.4°F8.0°C 80% 4.5 mph SW7.2 kmh SW 7.2 mph11.6 kmh 29.81 in1009.5 mb 0.00 in0.0 mm 0.00 in0.0 mm 0.21 in5.3 mm
12:19 AM 52.3°F11.3°C 46.4°F8.0°C 80% 4.3 mph SW6.9 kmh SW 9.4 mph15.1 kmh 29.81 in1009.5 mb 0.00 in0.0 mm 0.00 in0.0 mm 0.21 in5.3 mm
12:24 AM 52.5°F11.4°C 46.6°F8.1°C 80% 6.9 mph SSW11.1 kmh SSW 11.9 mph19.2 kmh 29.81 in1009.5 mb 0.00 in0.0 mm 0.00 in0.0 mm 0.21 in5.3 mm
12:29 AM 52.7°F11.5°C 46.8°F8.2°C 80% 4.0 mph SW6.4 kmh SW 8.7 mph14.0 kmh 29.81 in1009.5 mb 0.00 in0.0 mm 0.00 in0.0 mm 0.21 in5.3 mm
12:34 AM 52.7°F11.5°C 46.8°F8.2°C 80% 5.8 mph SW9.3 kmh SW 13.2 mph21.2 kmh 29.81 in1009.5 mb 0.00 in0.0 mm 0.00 in0.0 mm 0.21 in5.3 mm
12:39 AM 52.5°F11.4°C 46.6°F8.1°C 80% 5.4 mph SW8.7 kmh SW 9.4 mph15.1 kmh 29.81 in1009.5 mb 0.00 in0.0 mm 0.00 in0.0 mm 0.21 in5.3 mm
12:44 AM 52.3°F11.3°C 46.8°F8.2°C 81% 8.1 mph SSW13.0 kmh SSW 13.4 mph21.6 kmh 29.80 in1009.1 mb 0.00 in0.0 mm 0.00 in0.0 mm 0.21 in5.3 mm
12:49 AM 52.5°F11.4°C 46.9°F8.3°C 81% 8.3 mph SW13.4 kmh SW 15.0 mph24.1 kmh 29.80 in1009.1 mb 0.00 in0.0 mm 0.00 in0.0 mm 0.21 in5.3 mm
12:54 AM 52.3°F11.3°C 46.8°F8.2°C 81% 5.1 mph SW8.2 kmh SW 11.4 mph18.3 kmh 29.80 in1009.1 mb 0.00 in0.0 mm 0.00 in0.0 mm 0.21 in5.3 mm
01:04 AM 52.2°F11.2°C 46.6°F8.1°C 81% 10.5 mph SSW16.9 kmh SSW 18.8 mph30.3 kmh 29.80 in1009.1 mb 0.00 in0.0 mm 0.00 in0.0 mm 0.00 in0.0 mm
01:09 AM 52.2°F11.2°C 46.8°F8.2°C 82% 6.7 mph SW10.8 kmh SW 10.5 mph16.9 kmh 29.80 in1009.1 mb 0.00 in0.0 mm 0.00 in0.0 mm 0.00 in0.0 mm
01:14 AM 52.2°F11.2°C 46.8°F8.2°C 82% 5.4 mph SW8.7 kmh SW 8.5 mph13.7 kmh 29.80 in1009.1 mb 0.00 in0.0 mm 0.00 in0.0 mm 0.00 in0.0 mm
01:19 AM 52.0°F11.1°C 46.6°F8.1°C 82% 9.6 mph SSW15.4 kmh SSW 16.1 mph25.9 kmh 29.80 in1009.1 mb 0.00 in0.0 mm 0.00 in0.0 mm 0.00 in0.0 mm
01:24 AM 52.2°F11.2°C 46.8°F8.2°C 82% 4.5 mph SSW7.2 kmh SSW 8.1 mph13.0 kmh 29.81 in1009.5 mb 0.00 in0.0 mm 0.00 in0.0 mm 0.00 in0.0 mm
01:29 AM 52.2°F11.2°C 47.5°F8.6°C 84% 4.5 mph SW7.2 kmh SW 8.7 mph14.0 kmh 29.81 in1009.5 mb 0.00 in0.0 mm 0.00 in0.0 mm 0.00 in0.0 mm
01:34 AM 52.2°F11.2°C 47.5°F8.6°C 84% 2.7 mph SSW4.3 kmh SSW 5.1 mph8.2 kmh 29.81 in1009.5 mb 0.00 in0.0 mm 0.00 in0.0 mm 0.00 in0.0 mm
01:39 AM 52.0°F11.1°C 47.3°F8.5°C 84% 4.0 mph SSW6.4 kmh SSW 6.7 mph10.8 kmh 29.81 in1009.5 mb 0.00 in0.0 mm 0.00 in0.0 mm 0.00 in0.0 mm
01:44 AM 52.2°F11.2°C 47.5°F8.6°C 84% 5.1 mph WSW8.2 kmh WSW 11.6 mph18.7 kmh 29.81 in1009.5 mb 0.00 in0.0 mm 0.00 in0.0 mm 0.00 in0.0 mm
01:49 AM 52.2°F11.2°C 47.5°F8.6°C 84% 4.7 mph SSW7.6 kmh SSW 8.1 mph13.0 kmh 29.82 in1009.8 mb 0.00 in0.0 mm 0.00 in0.0 mm 0.00 in0.0 mm
01:54 AM 52.3°F11.3°C 47.7°F8.7°C 84% 4.7 mph S7.6 kmh S 9.6 mph15.4 kmh 29.82 in1009.8 mb 0.00 in0.0 mm 0.00 in0.0 mm 0.00 in0.0 mm
01:59 AM 52.2°F11.2°C 47.5°F8.6°C 84% 4.0 mph SW6.4 kmh SW 9.4 mph15.1 kmh 29.82 in1009.8 mb 0.00 in0.0 mm 0.00 in0.0 mm 0.00 in0.0 mm
02:04 AM 52.2°F11.2°C 47.5°F8.6°C 84% 1.8 mph W2.9 kmh W 3.6 mph5.8 kmh 29.82 in1009.8 mb 0.00 in0.0 mm 0.00 in0.0 mm 0.00 in0.0 mm
02:09 AM 52.0°F11.1°C 47.3°F8.5°C 84% 6.5 mph SW10.5 kmh SW 10.5 mph16.9 kmh 29.81 in1009.5 mb 0.00 in0.0 mm 0.00 in0.0 mm 0.00 in0.0 mm
02:14 AM 52.2°F11.2°C 47.5°F8.6°C 84% 6.5 mph SW10.5 kmh SW 15.2 mph24.5 kmh 29.82 in1009.8 mb 0.00 in0.0 mm 0.00 in0.0 mm 0.00 in0.0 mm
02:19 AM 52.0°F11.1°C 47.7°F8.7°C 85% 5.4 mph SSW8.7 kmh SSW 10.3 mph16.6 kmh 29.83 in1010.2 mb 0.00 in0.0 mm 0.00 in0.0 mm 0.00 in0.0 mm
02:24 AM 52.2°F11.2°C 47.8°F8.8°C 85% 4.5 mph SSW7.2 kmh SSW 9.2 mph14.8 kmh 29.83 in1010.2 mb 0.00 in0.0 mm 0.00 in0.0 mm 0.00 in0.0 mm
02:29 AM 52.2°F11.2°C 47.8°F8.8°C 85% 6.3 mph S10.1 kmh S 11.9 mph19.2 kmh 29.83 in1010.2 mb 0.00 in0.0 mm 0.00 in0.0 mm 0.00 in0.0 mm
02:34 AM 52.2°F11.2°C 47.8°F8.8°C 85% 7.2 mph SSW11.6 kmh SSW 13.6 mph21.9 kmh 29.83 in1010.2 mb 0.00 in0.0 mm 0.00 in0.0 mm 0.00 in0.0 mm
02:39 AM 52.3°F11.3°C 48.0°F8.9°C 85% 2.0 mph SSE3.2 kmh SSE 4.5 mph7.2 kmh 29.83 in1010.2 mb 0.00 in0.0 mm 0.00 in0.0 mm 0.00 in0.0 mm
02:44 AM 52.3°F11.3°C 48.0°F8.9°C 85% 8.9 mph SSW14.3 kmh SSW 16.1 mph25.9 kmh 29.83 in1010.2 mb 0.00 in0.0 mm 0.00 in0.0 mm 0.00 in0.0 mm
02:49 AM 52.3°F11.3°C 48.0°F8.9°C 85% 5.8 mph SSW9.3 kmh SSW 9.8 mph15.8 kmh 29.83 in1010.2 mb 0.00 in0.0 mm 0.00 in0.0 mm 0.00 in0.0 mm
02:54 AM 52.3°F11.3°C 48.0°F8.9°C 85% 5.4 mph SSW8.7 kmh SSW 9.8 mph15.8 kmh 29.84 in1010.5 mb 0.00 in0.0 mm 0.00 in0.0 mm 0.00 in0.0 mm
02:59 AM 52.3°F11.3°C 48.0°F8.9°C 85% 2.9 mph SE4.7 kmh SE 4.3 mph6.9 kmh 29.84 in1010.5 mb 0.00 in0.0 mm 0.00 in0.0 mm 0.00 in0.0 mm
03:04 AM 52.2°F11.2°C 47.8°F8.8°C 85% 2.2 mph SSW3.5 kmh SSW 5.4 mph8.7 kmh 29.84 in1010.5 mb 0.00 in0.0 mm 0.00 in0.0 mm 0.00 in0.0 mm
03:09 AM 52.3°F11.3°C 48.0°F8.9°C 85% 7.4 mph SSW11.9 kmh SSW 15.4 mph24.8 kmh 29.84 in1010.5 mb 0.00 in0.0 mm 0.00 in0.0 mm 0.00 in0.0 mm
03:14 AM 52.3°F11.3°C 48.0°F8.9°C 85% 3.8 mph SSW6.1 kmh SSW 5.6 mph9.0 kmh 29.84 in1010.5 mb 0.00 in0.0 mm 0.00 in0.0 mm 0.00 in0.0 mm
03:19 AM 52.3°F11.3°C 48.0°F8.9°C 85% 4.9 mph S7.9 kmh S 9.8 mph15.8 kmh 29.85 in1010.8 mb 0.00 in0.0 mm 0.00 in0.0 mm 0.00 in0.0 mm
03:24 AM 52.5°F11.4°C 48.2°F9.0°C 85% 7.2 mph SSW11.6 kmh SSW 11.9 mph19.2 kmh 29.84 in1010.5 mb 0.00 in0.0 mm 0.00 in0.0 mm 0.00 in0.0 mm
03:29 AM 52.3°F11.3°C 48.0°F8.9°C 85% 7.6 mph SW12.2 kmh SW 11.4 mph18.3 kmh 29.84 in1010.5 mb 0.00 in0.0 mm 0.00 in0.0 mm 0.00 in0.0 mm
03:34 AM 52.3°F11.3°C 48.0°F8.9°C 85% 3.1 mph S5.0 kmh S 6.5 mph10.5 kmh 29.84 in1010.5 mb 0.00 in0.0 mm 0.00 in0.0 mm 0.00 in0.0 mm
03:39 AM 52.3°F11.3°C 48.0°F8.9°C 85% 4.5 mph SSW7.2 kmh SSW 8.7 mph14.0 kmh 29.84 in1010.5 mb 0.00 in0.0 mm 0.00 in0.0 mm 0.00 in0.0 mm
03:44 AM 52.3°F11.3°C 48.0°F8.9°C 85% 4.9 mph SSW7.9 kmh SSW 7.2 mph11.6 kmh 29.84 in1010.5 mb 0.00 in0.0 mm 0.00 in0.0 mm 0.00 in0.0 mm
03:49 AM 52.3°F11.3°C 48.0°F8.9°C 85% 8.1 mph SSW13.0 kmh SSW 13.6 mph21.9 kmh 29.84 in1010.5 mb 0.00 in0.0 mm 0.00 in0.0 mm 0.00 in0.0 mm
03:54 AM 52.3°F11.3°C 48.0°F8.9°C 85% 3.4 mph SSW5.5 kmh SSW 5.1 mph8.2 kmh 29.85 in1010.8 mb 0.00 in0.0 mm 0.00 in0.0 mm 0.00 in0.0 mm
03:59 AM 52.3°F11.3°C 48.0°F8.9°C 85% 5.8 mph SSW9.3 kmh SSW 8.5 mph13.7 kmh 29.85 in1010.8 mb 0.00 in0.0 mm 0.00 in0.0 mm 0.00 in0.0 mm
04:04 AM 52.3°F11.3°C 48.0°F8.9°C 85% 5.4 mph SW8.7 kmh SW 8.5 mph13.7 kmh 29.85 in1010.8 mb 0.00 in0.0 mm 0.00 in0.0 mm 0.00 in0.0 mm
04:09 AM 52.5°F11.4°C 48.2°F9.0°C 85% 4.0 mph S6.4 kmh S 9.6 mph15.4 kmh 29.85 in1010.8 mb 0.00 in0.0 mm 0.00 in0.0 mm 0.00 in0.0 mm
04:14 AM 52.5°F11.4°C 48.2°F9.0°C 85% 6.9 mph SSW11.1 kmh SSW 14.3 mph23.0 kmh 29.85 in1010.8 mb 0.00 in0.0 mm 0.00 in0.0 mm 0.00 in0.0 mm
04:19 AM 52.5°F11.4°C 48.2°F9.0°C 85% 4.0 mph SW6.4 kmh SW 8.3 mph13.4 kmh 29.85 in1010.8 mb 0.00 in0.0 mm 0.00 in0.0 mm 0.00 in0.0 mm
04:24 AM 52.5°F11.4°C 48.2°F9.0°C 85% 5.4 mph SW8.7 kmh SW 8.5 mph13.7 kmh 29.85 in1010.8 mb 0.00 in0.0 mm 0.00 in0.0 mm 0.00 in0.0 mm
04:29 AM 52.5°F11.4°C 48.2°F9.0°C 85% 5.8 mph SW9.3 kmh SW 9.4 mph15.1 kmh 29.85 in1010.8 mb 0.00 in0.0 mm 0.00 in0.0 mm 0.00 in0.0 mm
04:34 AM 52.5°F11.4°C 48.2°F9.0°C 85% 6.7 mph SSW10.8 kmh SSW 12.3 mph19.8 kmh 29.85 in1010.8 mb 0.00 in0.0 mm 0.00 in0.0 mm 0.00 in0.0 mm
04:39 AM 52.5°F11.4°C 48.2°F9.0°C 85% 2.9 mph SSW4.7 kmh SSW 6.5 mph10.5 kmh 29.85 in1010.8 mb 0.00 in0.0 mm 0.00 in0.0 mm 0.00 in0.0 mm
04:44 AM 52.5°F11.4°C 48.2°F9.0°C 85% 5.1 mph SSW8.2 kmh SSW 10.3 mph16.6 kmh 29.85 in1010.8 mb 0.00 in0.0 mm 0.00 in0.0 mm 0.00 in0.0 mm
04:49 AM 52.3°F11.3°C 48.0°F8.9°C 85% 5.8 mph SW9.3 kmh SW 13.4 mph21.6 kmh 29.85 in1010.8 mb 0.00 in0.0 mm 0.00 in0.0 mm 0.00 in0.0 mm
04:54 AM 52.5°F11.4°C 48.2°F9.0°C 85% 5.6 mph SSW9.0 kmh SSW 9.2 mph14.8 kmh 29.85 in1010.8 mb 0.00 in0.0 mm 0.00 in0.0 mm 0.00 in0.0 mm
04:59 AM 52.5°F11.4°C 48.2°F9.0°C 85% 4.9 mph SW7.9 kmh SW 7.6 mph12.2 kmh 29.85 in1010.8 mb 0.00 in0.0 mm 0.00 in0.0 mm 0.00 in0.0 mm
05:04 AM 52.5°F11.4°C 48.2°F9.0°C 85% 2.9 mph SSW4.7 kmh SSW 9.2 mph14.8 kmh 29.85 in1010.8 mb 0.00 in0.0 mm 0.00 in0.0 mm 0.00 in0.0 mm
05:09 AM 52.5°F11.4°C 48.2°F9.0°C 85% 6.0 mph S9.7 kmh S 8.3 mph13.4 kmh 29.85 in1010.8 mb 0.00 in0.0 mm 0.00 in0.0 mm 0.00 in0.0 mm
05:14 AM 52.5°F11.4°C 48.2°F9.0°C 85% 2.9 mph SW4.7 kmh SW 6.5 mph10.5 kmh 29.85 in1010.8 mb 0.00 in0.0 mm 0.00 in0.0 mm 0.00 in0.0 mm
05:19 AM 52.5°F11.4°C 48.2°F9.0°C 85% 3.6 mph SW5.8 kmh SW 9.8 mph15.8 kmh 29.85 in1010.8 mb 0.00 in0.0 mm 0.00 in0.0 mm 0.00 in0.0 mm
05:24 AM 52.5°F11.4°C 48.2°F9.0°C 85% 6.3 mph SSW10.1 kmh SSW 11.0 mph17.7 kmh 29.85 in1010.8 mb 0.00 in0.0 mm 0.00 in0.0 mm 0.00 in0.0 mm
05:29 AM 52.5°F11.4°C 48.2°F9.0°C 85% 5.6 mph SW9.0 kmh SW 12.5 mph20.1 kmh 29.85 in1010.8 mb 0.00 in0.0 mm 0.00 in0.0 mm 0.00 in0.0 mm
05:34 AM 52.3°F11.3°C 48.0°F8.9°C 85% 2.0 mph NNW3.2 kmh NNW 3.8 mph6.1 kmh 29.85 in1010.8 mb 0.00 in0.0 mm 0.00 in0.0 mm 0.00 in0.0 mm
05:39 AM 52.2°F11.2°C 47.8°F8.8°C 85% 3.1 mph S5.0 kmh S 5.6 mph9.0 kmh 29.85 in1010.8 mb 0.00 in0.0 mm 0.00 in0.0 mm 0.00 in0.0 mm
05:44 AM 52.2°F11.2°C 47.8°F8.8°C 85% 2.2 mph SW3.5 kmh SW 4.0 mph6.4 kmh 29.85 in1010.8 mb 0.00 in0.0 mm 0.00 in0.0 mm 0.00 in0.0 mm
05:49 AM 52.2°F11.2°C 47.8°F8.8°C 85% 4.7 mph SW7.6 kmh SW 8.9 mph14.3 kmh 29.85 in1010.8 mb 0.00 in0.0 mm 0.00 in0.0 mm 0.00 in0.0 mm
05:54 AM 52.2°F11.2°C 47.8°F8.8°C 85% 2.5 mph SW4.0 kmh SW 4.9 mph7.9 kmh 29.85 in1010.8 mb 0.00 in0.0 mm 0.00 in0.0 mm 0.00 in0.0 mm
05:59 AM 52.2°F11.2°C 47.8°F8.8°C 85% 4.0 mph SW6.4 kmh SW 6.7 mph10.8 kmh 29.85 in1010.8 mb 0.00 in0.0 mm 0.00 in0.0 mm 0.00 in0.0 mm
06:04 AM 52.2°F11.2°C 47.8°F8.8°C 85% 2.2 mph SSW3.5 kmh SSW 3.4 mph5.5 kmh 29.85 in1010.8 mb 0.00 in0.0 mm 0.00 in0.0 mm 0.00 in0.0 mm
06:09 AM 52.0°F11.1°C 47.7°F8.7°C 85% 5.4 mph SSW8.7 kmh SSW 9.4 mph15.1 kmh 29.85 in1010.8 mb 0.00 in0.0 mm 0.00 in0.0 mm 0.00 in0.0 mm
06:14 AM 52.0°F11.1°C 47.8°F8.8°C 86% 1.6 mph S2.6 kmh S 2.9 mph4.7 kmh 29.85 in1010.8 mb 0.00 in0.0 mm 0.00 in0.0 mm 0.00 in0.0 mm
06:19 AM 52.2°F11.2°C 48.0°F8.9°C 86% 2.5 mph SSW4.0 kmh SSW 4.0 mph6.4 kmh 29.85 in1010.8 mb 0.00 in0.0 mm 0.00 in0.0 mm 0.00 in0.0 mm
06:24 AM 52.0°F11.1°C 47.8°F8.8°C 86% 2.9 mph S4.7 kmh S 5.8 mph9.3 kmh 29.85 in1010.8 mb 0.00 in0.0 mm 0.00 in0.0 mm 0.00 in0.0 mm
06:29 AM 52.0°F11.1°C 47.7°F8.7°C 85% 2.5 mph S4.0 kmh S 4.3 mph6.9 kmh 29.85 in1010.8 mb 0.00 in0.0 mm 0.00 in0.0 mm 0.00 in0.0 mm
06:34 AM 51.8°F11.0°C 47.7°F8.7°C 86% 3.4 mph S5.5 kmh S 6.9 mph11.1 kmh 29.85 in1010.8 mb 0.00 in0.0 mm 0.00 in0.0 mm 0.00 in0.0 mm
06:39 AM 52.0°F11.1°C 47.8°F8.8°C 86% 5.1 mph SW8.2 kmh SW 10.5 mph16.9 kmh 29.85 in1010.8 mb 0.00 in0.0 mm 0.00 in0.0 mm 0.00 in0.0 mm
06:44 AM 52.0°F11.1°C 47.8°F8.8°C 86% 3.1 mph SW5.0 kmh SW 6.3 mph10.1 kmh 29.85 in1010.8 mb 0.00 in0.0 mm 0.00 in0.0 mm 0.00 in0.0 mm
06:49 AM 52.0°F11.1°C 47.8°F8.8°C 86% 3.1 mph SW5.0 kmh SW 6.0 mph9.7 kmh 29.85 in1010.8 mb 0.00 in0.0 mm 0.00 in0.0 mm 0.00 in0.0 mm
06:54 AM 52.0°F11.1°C 47.8°F8.8°C 86% 4.9 mph SSW7.9 kmh SSW 12.3 mph19.8 kmh 29.85 in1010.8 mb 0.00 in0.0 mm 0.00 in0.0 mm 0.00 in0.0 mm
06:59 AM 51.8°F11.0°C 47.7°F8.7°C 86% 2.9 mph SSW4.7 kmh SSW 5.4 mph8.7 kmh 29.84 in1010.5 mb 0.00 in0.0 mm 0.00 in0.0 mm 0.00 in0.0 mm
07:04 AM 52.0°F11.1°C 47.8°F8.8°C 86% 3.8 mph S6.1 kmh S 5.6 mph9.0 kmh 29.84 in1010.5 mb 0.00 in0.0 mm 0.00 in0.0 mm 0.00 in0.0 mm
07:09 AM 51.8°F11.0°C 47.7°F8.7°C 86% 4.9 mph SSW7.9 kmh SSW 6.0 mph9.7 kmh 29.84 in1010.5 mb 0.00 in0.0 mm 0.00 in0.0 mm 0.00 in0.0 mm
07:14 AM 51.8°F11.0°C 47.7°F8.7°C 86% 3.1 mph SW5.0 kmh SW 7.8 mph12.6 kmh 29.84 in1010.5 mb 0.00 in0.0 mm 0.00 in0.0 mm 0.00 in0.0 mm
07:19 AM 51.8°F11.0°C 48.7°F9.3°C 89% 4.9 mph W7.9 kmh W 8.5 mph13.7 kmh 29.84 in1010.5 mb 0.02 in0.5 mm 0.24 in6.1 mm 0.02 in0.5 mm
07:24 AM 51.4°F10.8°C 48.4°F9.1°C 89% 0.4 mph E0.6 kmh E 1.8 mph2.9 kmh 29.83 in1010.2 mb 0.02 in0.5 mm 0.00 in0.0 mm 0.02 in0.5 mm
07:29 AM 51.3°F10.7°C 48.4°F9.1°C 90% 2.0 mph SW3.2 kmh SW 4.3 mph6.9 kmh 29.84 in1010.5 mb 0.02 in0.5 mm 0.00 in0.0 mm 0.02 in0.5 mm
07:34 AM 51.1°F10.6°C 48.2°F9.0°C 90% 1.8 mph ESE2.9 kmh ESE 4.5 mph7.2 kmh 29.83 in1010.2 mb 0.02 in0.5 mm 0.00 in0.0 mm 0.02 in0.5 mm
07:39 AM 50.9°F10.5°C 48.0°F8.9°C 90% 1.8 mph SSW2.9 kmh SSW 3.8 mph6.1 kmh 29.84 in1010.5 mb 0.02 in0.5 mm 0.00 in0.0 mm 0.02 in0.5 mm
07:44 AM 50.9°F10.5°C 48.0°F8.9°C 90% 3.1 mph SSW5.0 kmh SSW 4.7 mph7.6 kmh 29.83 in1010.2 mb 0.02 in0.5 mm 0.00 in0.0 mm 0.02 in0.5 mm
07:49 AM 50.9°F10.5°C 48.0°F8.9°C 90% 5.4 mph SW8.7 kmh SW 8.9 mph14.3 kmh 29.83 in1010.2 mb 0.02 in0.5 mm 0.00 in0.0 mm 0.02 in0.5 mm
07:54 AM 50.7°F10.4°C 47.8°F8.8°C 90% 4.7 mph SSW7.6 kmh SSW 7.6 mph12.2 kmh 29.83 in1010.2 mb 0.02 in0.5 mm 0.00 in0.0 mm 0.02 in0.5 mm
07:59 AM 50.5°F10.3°C 47.7°F8.7°C 90% 1.6 mph S2.6 kmh S 2.7 mph4.3 kmh 29.82 in1009.8 mb 0.02 in0.5 mm 0.00 in0.0 mm 0.02 in0.5 mm
08:04 AM 50.2°F10.1°C 47.3°F8.5°C 90% 2.0 mph S3.2 kmh S 3.8 mph6.1 kmh 29.82 in1009.8 mb 0.02 in0.5 mm 0.00 in0.0 mm 0.02 in0.5 mm
08:09 AM 49.8°F9.9°C 46.9°F8.3°C 90% 1.6 mph S2.6 kmh S 4.0 mph6.4 kmh 29.82 in1009.8 mb 0.02 in0.5 mm 0.00 in0.0 mm 0.02 in0.5 mm
08:14 AM 49.6°F9.8°C 46.8°F8.2°C 90% 1.8 mph SSW2.9 kmh SSW 2.7 mph4.3 kmh 29.83 in1010.2 mb 0.02 in0.5 mm 0.00 in0.0 mm 0.02 in0.5 mm
08:19 AM 49.5°F9.7°C 46.6°F8.1°C 90% 1.1 mph NW1.8 kmh NW 2.5 mph4.0 kmh 29.83 in1010.2 mb 0.00 in0.0 mm 0.00 in0.0 mm 0.02 in0.5 mm
08:24 AM 49.5°F9.7°C 46.6°F8.1°C 90% 2.5 mph SW4.0 kmh SW 3.8 mph6.1 kmh 29.83 in1010.2 mb 0.00 in0.0 mm 0.00 in0.0 mm 0.02 in0.5 mm
08:29 AM 49.5°F9.7°C 46.6°F8.1°C 90% 2.0 mph S3.2 kmh S 4.0 mph6.4 kmh 29.83 in1010.2 mb 0.00 in0.0 mm 0.00 in0.0 mm 0.02 in0.5 mm
08:34 AM 49.3°F9.6°C 46.4°F8.0°C 90% 1.6 mph S2.6 kmh S 3.1 mph5.0 kmh 29.82 in1009.8 mb 0.00 in0.0 mm 0.00 in0.0 mm 0.02 in0.5 mm
08:39 AM 49.5°F9.7°C 46.6°F8.1°C 90% 2.9 mph SSW4.7 kmh SSW 4.7 mph7.6 kmh 29.82 in1009.8 mb 0.00 in0.0 mm 0.00 in0.0 mm 0.02 in0.5 mm
08:44 AM 49.5°F9.7°C 46.6°F8.1°C 90% 1.8 mph SSW2.9 kmh SSW 2.5 mph4.0 kmh 29.82 in1009.8 mb 0.00 in0.0 mm 0.00 in0.0 mm 0.02 in0.5 mm
08:49 AM 49.3°F9.6°C 46.4°F8.0°C 90% 2.2 mph SSW3.5 kmh SSW 3.6 mph5.8 kmh 29.82 in1009.8 mb 0.00 in0.0 mm 0.00 in0.0 mm 0.02 in0.5 mm
08:54 AM 49.1°F9.5°C 46.2°F7.9°C 90% 3.4 mph SSW5.5 kmh SSW 5.8 mph9.3 kmh 29.82 in1009.8 mb 0.00 in0.0 mm 0.00 in0.0 mm 0.02 in0.5 mm
08:59 AM 49.1°F9.5°C 46.6°F8.1°C 91% 2.9 mph S4.7 kmh S 4.5 mph7.2 kmh 29.82 in1009.8 mb 0.00 in0.0 mm 0.00 in0.0 mm 0.02 in0.5 mm
09:04 AM 49.1°F9.5°C 46.6°F8.1°C 91% 2.2 mph SSW3.5 kmh SSW 3.6 mph5.8 kmh 29.82 in1009.8 mb 0.00 in0.0 mm 0.00 in0.0 mm 0.02 in0.5 mm
09:09 AM 49.3°F9.6°C 46.8°F8.2°C 91% 2.5 mph S4.0 kmh S 4.0 mph6.4 kmh 29.82 in1009.8 mb 0.00 in0.0 mm 0.00 in0.0 mm 0.02 in0.5 mm
09:14 AM 49.5°F9.7°C 46.9°F8.3°C 91% 3.1 mph S5.0 kmh S 5.4 mph8.7 kmh 29.82 in1009.8 mb 0.00 in0.0 mm 0.00 in0.0 mm 0.02 in0.5 mm
09:19 AM 49.5°F9.7°C 46.9°F8.3°C 91% 2.9 mph S4.7 kmh S 4.3 mph6.9 kmh 29.81 in1009.5 mb 0.00 in0.0 mm 0.00 in0.0 mm 0.02 in0.5 mm
09:24 AM 49.5°F9.7°C 46.9°F8.3°C 91% 2.9 mph SSW4.7 kmh SSW 3.6 mph5.8 kmh 29.81 in1009.5 mb 0.00 in0.0 mm 0.00 in0.0 mm 0.02 in0.5 mm
09:29 AM 49.5°F9.7°C 46.9°F8.3°C 91% 2.5 mph S4.0 kmh S 3.8 mph6.1 kmh 29.80 in1009.1 mb 0.00 in0.0 mm 0.00 in0.0 mm 0.02 in0.5 mm
09:34 AM 49.6°F9.8°C 47.1°F8.4°C 91% 2.7 mph SSE4.3 kmh SSE 4.0 mph6.4 kmh 29.80 in1009.1 mb 0.00 in0.0 mm 0.00 in0.0 mm 0.02 in0.5 mm
09:39 AM 49.6°F9.8°C 47.1°F8.4°C 91% 2.7 mph S4.3 kmh S 4.5 mph7.2 kmh 29.80 in1009.1 mb 0.01 in0.3 mm 0.12 in3.0 mm 0.02 in0.5 mm
09:44 AM 49.6°F9.8°C 47.1°F8.4°C 91% 4.5 mph SW7.2 kmh SW 6.7 mph10.8 kmh 29.79 in1008.8 mb 0.01 in0.3 mm 0.00 in0.0 mm 0.03 in0.8 mm
09:49 AM 49.6°F9.8°C 47.7°F8.7°C 93% 2.9 mph S4.7 kmh S 5.1 mph8.2 kmh 29.79 in1008.8 mb 0.01 in0.3 mm 0.00 in0.0 mm 0.03 in0.8 mm
09:54 AM 49.6°F9.8°C 47.7°F8.7°C 93% 5.6 mph SSW9.0 kmh SSW 9.4 mph15.1 kmh 29.78 in1008.5 mb 0.01 in0.3 mm 0.00 in0.0 mm 0.03 in0.8 mm
09:59 AM 49.6°F9.8°C 47.7°F8.7°C 93% 3.8 mph SSW6.1 kmh SSW 6.3 mph10.1 kmh 29.79 in1008.8 mb 0.02 in0.5 mm 0.12 in3.0 mm 0.04 in1.0 mm
10:04 AM 49.6°F9.8°C 47.7°F8.7°C 93% 2.7 mph SSW4.3 kmh SSW 4.7 mph7.6 kmh 29.79 in1008.8 mb 0.02 in0.5 mm 0.00 in0.0 mm 0.06 in1.5 mm
10:09 AM 49.5°F9.7°C 47.8°F8.8°C 94% 1.8 mph S2.9 kmh S 4.0 mph6.4 kmh 29.79 in1008.8 mb 0.04 in1.0 mm 0.24 in6.1 mm 0.08 in2.0 mm
10:14 AM 49.5°F9.7°C 47.8°F8.8°C 94% 2.9 mph NW4.7 kmh NW 4.3 mph6.9 kmh 29.81 in1009.5 mb 0.07 in1.8 mm 0.36 in9.1 mm 0.11 in2.8 mm
10:19 AM 49.1°F9.5°C 47.5°F8.6°C 94% 4.9 mph WSW7.9 kmh WSW 11.9 mph19.2 kmh 29.82 in1009.8 mb 0.11 in2.8 mm 0.48 in12.2 mm 0.15 in3.8 mm
10:24 AM 47.8°F8.8°C 46.2°F7.9°C 94% 4.9 mph SSW7.9 kmh SSW 11.4 mph18.3 kmh 29.80 in1009.1 mb 0.15 in3.8 mm 0.48 in12.2 mm 0.19 in4.8 mm
10:29 AM 46.9°F8.3°C 45.3°F7.4°C 94% 3.4 mph S5.5 kmh S 5.6 mph9.0 kmh 29.79 in1008.8 mb 0.16 in4.1 mm 0.12 in3.0 mm 0.20 in5.1 mm
10:34 AM 46.6°F8.1°C 44.6°F7.0°C 93% 4.3 mph S6.9 kmh S 7.6 mph12.2 kmh 29.79 in1008.8 mb 0.17 in4.3 mm 0.12 in3.0 mm 0.21 in5.3 mm
10:39 AM 46.8°F8.2°C 44.8°F7.1°C 93% 2.9 mph SSE4.7 kmh SSE 5.6 mph9.0 kmh 29.78 in1008.5 mb 0.17 in4.3 mm 0.00 in0.0 mm 0.21 in5.3 mm
10:44 AM 46.9°F8.3°C 44.4°F6.9°C 91% 2.9 mph S4.7 kmh S 4.0 mph6.4 kmh 29.78 in1008.5 mb 0.18 in4.6 mm 0.12 in3.0 mm 0.22 in5.6 mm
10:49 AM 46.9°F8.3°C 45.0°F7.2°C 93% 3.6 mph S5.8 kmh S 5.4 mph8.7 kmh 29.78 in1008.5 mb 0.18 in4.6 mm 0.00 in0.0 mm 0.22 in5.6 mm
10:54 AM 47.1°F8.4°C 45.1°F7.3°C 93% 4.7 mph S7.6 kmh S 6.9 mph11.1 kmh 29.78 in1008.5 mb 0.18 in4.6 mm 0.00 in0.0 mm 0.22 in5.6 mm
10:59 AM 47.3°F8.5°C 44.8°F7.1°C 91% 5.4 mph SSW8.7 kmh SSW 8.7 mph14.0 kmh 29.78 in1008.5 mb 0.18 in4.6 mm 0.00 in0.0 mm 0.22 in5.6 mm
11:04 AM 47.5°F8.6°C 45.0°F7.2°C 91% 4.9 mph S7.9 kmh S 9.6 mph15.4 kmh 29.78 in1008.5 mb 0.02 in0.5 mm 0.00 in0.0 mm 0.24 in6.1 mm
11:09 AM 47.1°F8.4°C 45.1°F7.3°C 93% 5.1 mph S8.2 kmh S 11.6 mph18.7 kmh 29.77 in1008.1 mb 0.05 in1.3 mm 0.36 in9.1 mm 0.27 in6.9 mm
11:14 AM 47.3°F8.5°C 45.3°F7.4°C 93% 2.5 mph SE4.0 kmh SE 6.3 mph10.1 kmh 29.78 in1008.5 mb 0.05 in1.3 mm 0.00 in0.0 mm 0.27 in6.9 mm
11:19 AM 47.3°F8.5°C 45.3°F7.4°C 93% 4.0 mph SSW6.4 kmh SSW 8.5 mph13.7 kmh 29.77 in1008.1 mb 0.06 in1.5 mm 0.12 in3.0 mm 0.28 in7.1 mm
11:24 AM 47.7°F8.7°C 46.0°F7.8°C 94% 3.1 mph S5.0 kmh S 5.8 mph9.3 kmh 29.77 in1008.1 mb 0.06 in1.5 mm 0.00 in0.0 mm 0.28 in7.1 mm
11:29 AM 47.8°F8.8°C 46.2°F7.9°C 94% 3.4 mph E5.5 kmh E 4.7 mph7.6 kmh 29.77 in1008.1 mb 0.06 in1.5 mm 0.00 in0.0 mm 0.28 in7.1 mm
11:34 AM 48.0°F8.9°C 46.0°F7.8°C 93% 2.9 mph SE4.7 kmh SE 3.8 mph6.1 kmh 29.77 in1008.1 mb 0.06 in1.5 mm 0.00 in0.0 mm 0.28 in7.1 mm
11:39 AM 48.2°F9.0°C 46.6°F8.1°C 94% 2.9 mph SE4.7 kmh SE 4.7 mph7.6 kmh 29.76 in1007.8 mb 0.06 in1.5 mm 0.00 in0.0 mm 0.28 in7.1 mm
11:44 AM 48.4°F9.1°C 46.4°F8.0°C 93% 3.4 mph ESE5.5 kmh ESE 5.1 mph8.2 kmh 29.76 in1007.8 mb 0.06 in1.5 mm 0.00 in0.0 mm 0.28 in7.1 mm
11:49 AM 48.4°F9.1°C 46.4°F8.0°C 93% 1.8 mph SSE2.9 kmh SSE 2.9 mph4.7 kmh 29.75 in1007.5 mb 0.06 in1.5 mm 0.00 in0.0 mm 0.28 in7.1 mm
11:54 AM 48.7°F9.3°C 46.8°F8.2°C 93% 1.8 mph S2.9 kmh S 3.4 mph5.5 kmh 29.75 in1007.5 mb 0.06 in1.5 mm 0.00 in0.0 mm 0.28 in7.1 mm
11:59 AM 48.9°F9.4°C 47.3°F8.5°C 94% 4.7 mph E7.6 kmh E 6.3 mph10.1 kmh 29.75 in1007.5 mb 0.06 in1.5 mm 0.00 in0.0 mm 0.28 in7.1 mm
12:04 PM 48.9°F9.4°C 46.9°F8.3°C 93% 2.5 mph ESE4.0 kmh ESE 3.8 mph6.1 kmh 29.75 in1007.5 mb 0.05 in1.3 mm 0.00 in0.0 mm 0.28 in7.1 mm
12:09 PM 49.1°F9.5°C 47.1°F8.4°C 93% 3.4 mph E5.5 kmh E 3.6 mph5.8 kmh 29.74 in1007.1 mb 0.02 in0.5 mm 0.00 in0.0 mm 0.28 in7.1 mm
12:14 PM 49.1°F9.5°C 47.1°F8.4°C 93% 1.8 mph SSE2.9 kmh SSE 3.1 mph5.0 kmh 29.74 in1007.1 mb 0.02 in0.5 mm 0.00 in0.0 mm 0.28 in7.1 mm
12:19 PM 49.3°F9.6°C 47.7°F8.7°C 94% 4.3 mph S6.9 kmh S 9.2 mph14.8 kmh 29.73 in1006.8 mb 0.00 in0.0 mm 0.00 in0.0 mm 0.28 in7.1 mm
12:24 PM 49.5°F9.7°C 47.8°F8.8°C 94% 2.7 mph SSE4.3 kmh SSE 4.9 mph7.9 kmh 29.73 in1006.8 mb 0.00 in0.0 mm 0.00 in0.0 mm 0.28 in7.1 mm
12:29 PM 49.6°F9.8°C 48.0°F8.9°C 94% 3.6 mph S5.8 kmh S 9.8 mph15.8 kmh 29.72 in1006.4 mb 0.00 in0.0 mm 0.00 in0.0 mm 0.28 in7.1 mm
12:34 PM 49.8°F9.9°C 47.8°F8.8°C 93% 1.6 mph SSW2.6 kmh SSW 2.7 mph4.3 kmh 29.73 in1006.8 mb 0.00 in0.0 mm 0.00 in0.0 mm 0.28 in7.1 mm
12:39 PM 50.2°F10.1°C 48.2°F9.0°C 93% 3.4 mph S5.5 kmh S 5.6 mph9.0 kmh 29.72 in1006.4 mb 0.00 in0.0 mm 0.00 in0.0 mm 0.28 in7.1 mm
12:44 PM 50.4°F10.2°C 48.4°F9.1°C 93% 1.8 mph E2.9 kmh E 3.6 mph5.8 kmh 29.71 in1006.1 mb 0.01 in0.3 mm 0.12 in3.0 mm 0.28 in7.1 mm
12:49 PM 50.7°F10.4°C 48.7°F9.3°C 93% 4.5 mph SW7.2 kmh SW 9.6 mph15.4 kmh 29.71 in1006.1 mb 0.01 in0.3 mm 0.00 in0.0 mm 0.28 in7.1 mm
12:54 PM 51.3°F10.7°C 48.7°F9.3°C 91% 2.7 mph SSE4.3 kmh SSE 4.5 mph7.2 kmh 29.70 in1005.8 mb 0.01 in0.3 mm 0.00 in0.0 mm 0.28 in7.1 mm
12:59 PM 51.6°F10.9°C 48.7°F9.3°C 90% 3.6 mph SW5.8 kmh SW 6.7 mph10.8 kmh 29.70 in1005.8 mb 0.01 in0.3 mm 0.00 in0.0 mm 0.28 in7.1 mm
01:04 PM 52.0°F11.1°C 48.9°F9.4°C 89% 5.1 mph S8.2 kmh S 8.3 mph13.4 kmh 29.70 in1005.8 mb 0.01 in0.3 mm 0.00 in0.0 mm 0.28 in7.1 mm
01:09 PM 52.2°F11.2°C 48.4°F9.1°C 87% 4.7 mph SW7.6 kmh SW 10.3 mph16.6 kmh 29.70 in1005.8 mb 0.01 in0.3 mm 0.00 in0.0 mm 0.28 in7.1 mm
01:14 PM 52.3°F11.3°C 48.0°F8.9°C 85% 5.6 mph SW9.0 kmh SW 14.1 mph22.7 kmh 29.69 in1005.4 mb 0.01 in0.3 mm 0.00 in0.0 mm 0.28 in7.1 mm
01:19 PM 52.3°F11.3°C 48.0°F8.9°C 85% 7.2 mph SSW11.6 kmh SSW 12.3 mph19.8 kmh 29.68 in1005.1 mb 0.01 in0.3 mm 0.00 in0.0 mm 0.28 in7.1 mm
01:24 PM 52.3°F11.3°C 47.7°F8.7°C 84% 3.8 mph SSW6.1 kmh SSW 7.4 mph11.9 kmh 29.68 in1005.1 mb 0.01 in0.3 mm 0.00 in0.0 mm 0.28 in7.1 mm
01:29 PM 52.7°F11.5°C 48.0°F8.9°C 84% 3.1 mph NW5.0 kmh NW 7.2 mph11.6 kmh 29.68 in1005.1 mb 0.01 in0.3 mm 0.00 in0.0 mm 0.28 in7.1 mm
01:34 PM 53.1°F11.7°C 48.4°F9.1°C 84% 3.4 mph WNW5.5 kmh WNW 6.5 mph10.5 kmh 29.67 in1004.7 mb 0.01 in0.3 mm 0.00 in0.0 mm 0.28 in7.1 mm
01:39 PM 53.2°F11.8°C 48.6°F9.2°C 84% 3.6 mph SSW5.8 kmh SSW 7.6 mph12.2 kmh 29.67 in1004.7 mb 0.01 in0.3 mm 0.00 in0.0 mm 0.28 in7.1 mm
01:44 PM 53.4°F11.9°C 48.0°F8.9°C 82% 3.4 mph SSW5.5 kmh SSW 5.8 mph9.3 kmh 29.67 in1004.7 mb 0.00 in0.0 mm 0.00 in0.0 mm 0.28 in7.1 mm
01:49 PM 53.8°F12.1°C 48.4°F9.1°C 82% 2.0 mph N3.2 kmh N 3.4 mph5.5 kmh 29.66 in1004.4 mb 0.00 in0.0 mm 0.00 in0.0 mm 0.28 in7.1 mm
01:54 PM 54.0°F12.2°C 48.6°F9.2°C 82% 6.5 mph SSW10.5 kmh SSW 12.8 mph20.6 kmh 29.65 in1004.1 mb 0.00 in0.0 mm 0.00 in0.0 mm 0.28 in7.1 mm
01:59 PM 54.0°F12.2°C 48.2°F9.0°C 81% 7.6 mph SSW12.2 kmh SSW 13.6 mph21.9 kmh 29.66 in1004.4 mb 0.00 in0.0 mm 0.00 in0.0 mm 0.28 in7.1 mm
02:04 PM 54.5°F12.5°C 48.4°F9.1°C 80% 9.2 mph SSW14.8 kmh SSW 16.3 mph26.2 kmh 29.65 in1004.1 mb 0.00 in0.0 mm 0.00 in0.0 mm 0.28 in7.1 mm
02:09 PM 54.7°F12.6°C 48.4°F9.1°C 79% 3.1 mph NNW5.0 kmh NNW 7.6 mph12.2 kmh 29.65 in1004.1 mb 0.00 in0.0 mm 0.00 in0.0 mm 0.28 in7.1 mm
02:14 PM 54.7°F12.6°C 48.4°F9.1°C 79% 3.6 mph WSW5.8 kmh WSW 7.6 mph12.2 kmh 29.65 in1004.1 mb 0.00 in0.0 mm 0.00 in0.0 mm 0.28 in7.1 mm
02:19 PM 54.5°F12.5°C 47.5°F8.6°C 77% 3.8 mph W6.1 kmh W 9.8 mph15.8 kmh 29.65 in1004.1 mb 0.00 in0.0 mm 0.00 in0.0 mm 0.28 in7.1 mm
02:24 PM 54.3°F12.4°C 48.0°F8.9°C 79% 2.7 mph S4.3 kmh S 4.9 mph7.9 kmh 29.65 in1004.1 mb 0.00 in0.0 mm 0.00 in0.0 mm 0.28 in7.1 mm
02:29 PM 54.3°F12.4°C 48.0°F8.9°C 79% 2.9 mph WSW4.7 kmh WSW 7.2 mph11.6 kmh 29.65 in1004.1 mb 0.00 in0.0 mm 0.00 in0.0 mm 0.28 in7.1 mm
02:34 PM 54.3°F12.4°C 48.0°F8.9°C 79% 2.0 mph WSW3.2 kmh WSW 3.4 mph5.5 kmh 29.65 in1004.1 mb 0.00 in0.0 mm 0.00 in0.0 mm 0.28 in7.1 mm
02:39 PM 54.1°F12.3°C 47.8°F8.8°C 79% 2.0 mph WNW3.2 kmh WNW 4.0 mph6.4 kmh 29.65 in1004.1 mb 0.00 in0.0 mm 0.00 in0.0 mm 0.28 in7.1 mm
02:44 PM 54.1°F12.3°C 48.4°F9.1°C 81% 1.3 mph NW2.1 kmh NW 3.1 mph5.0 kmh 29.65 in1004.1 mb 0.00 in0.0 mm 0.00 in0.0 mm 0.28 in7.1 mm
02:49 PM 54.3°F12.4°C 48.6°F9.2°C 81% 1.8 mph SW2.9 kmh SW 3.8 mph6.1 kmh 29.64 in1003.7 mb 0.00 in0.0 mm 0.00 in0.0 mm 0.28 in7.1 mm
02:54 PM 54.5°F12.5°C 48.4°F9.1°C 80% 2.5 mph SE4.0 kmh SE 5.6 mph9.0 kmh 29.64 in1003.7 mb 0.00 in0.0 mm 0.00 in0.0 mm 0.28 in7.1 mm
02:59 PM 54.7°F12.6°C 48.4°F9.1°C 79% 4.0 mph WNW6.4 kmh WNW 6.9 mph11.1 kmh 29.64 in1003.7 mb 0.00 in0.0 mm 0.00 in0.0 mm 0.28 in7.1 mm
03:04 PM 54.7°F12.6°C 48.6°F9.2°C 80% 1.1 mph SSE1.8 kmh SSE 2.7 mph4.3 kmh 29.64 in1003.7 mb 0.00 in0.0 mm 0.00 in0.0 mm 0.28 in7.1 mm
03:09 PM 54.5°F12.5°C 48.2°F9.0°C 79% 1.1 mph SSW1.8 kmh SSW 2.5 mph4.0 kmh 29.63 in1003.4 mb 0.00 in0.0 mm 0.00 in0.0 mm 0.28 in7.1 mm
03:14 PM 55.0°F12.8°C 48.6°F9.2°C 79% 3.1 mph N5.0 kmh N 5.6 mph9.0 kmh 29.63 in1003.4 mb 0.00 in0.0 mm 0.00 in0.0 mm 0.28 in7.1 mm
03:19 PM 55.4°F13.0°C 48.4°F9.1°C 77% 2.0 mph S3.2 kmh S 4.9 mph7.9 kmh 29.63 in1003.4 mb 0.00 in0.0 mm 0.00 in0.0 mm 0.28 in7.1 mm
03:24 PM 55.2°F12.9°C 47.8°F8.8°C 76% 2.7 mph SSW4.3 kmh SSW 7.4 mph11.9 kmh 29.63 in1003.4 mb 0.00 in0.0 mm 0.00 in0.0 mm 0.28 in7.1 mm
03:29 PM 55.2°F12.9°C 47.1°F8.4°C 74% 7.4 mph SSW11.9 kmh SSW 12.1 mph19.5 kmh 29.63 in1003.4 mb 0.00 in0.0 mm 0.00 in0.0 mm 0.28 in7.1 mm
03:34 PM 55.0°F12.8°C 46.6°F8.1°C 73% 4.0 mph SW6.4 kmh SW 9.8 mph15.8 kmh 29.63 in1003.4 mb 0.00 in0.0 mm 0.00 in0.0 mm 0.28 in7.1 mm
03:39 PM 54.9°F12.7°C 46.4°F8.0°C 73% 2.0 mph NNW3.2 kmh NNW 5.1 mph8.2 kmh 29.63 in1003.4 mb 0.00 in0.0 mm 0.00 in0.0 mm 0.28 in7.1 mm
03:44 PM 54.7°F12.6°C 46.2°F7.9°C 73% 2.5 mph SW4.0 kmh SW 6.3 mph10.1 kmh 29.62 in1003.0 mb 0.00 in0.0 mm 0.00 in0.0 mm 0.28 in7.1 mm
03:49 PM 54.5°F12.5°C 46.0°F7.8°C 73% 2.7 mph SSW4.3 kmh SSW 4.9 mph7.9 kmh 29.62 in1003.0 mb 0.00 in0.0 mm 0.00 in0.0 mm 0.28 in7.1 mm
03:54 PM 54.5°F12.5°C 46.4°F8.0°C 74% 2.7 mph SSW4.3 kmh SSW 4.7 mph7.6 kmh 29.62 in1003.0 mb 0.00 in0.0 mm 0.00 in0.0 mm 0.28 in7.1 mm
03:59 PM 54.3°F12.4°C 46.2°F7.9°C 74% 2.7 mph W4.3 kmh W 6.3 mph10.1 kmh 29.60 in1002.4 mb 0.00 in0.0 mm 0.00 in0.0 mm 0.28 in7.1 mm
04:04 PM 54.1°F12.3°C 45.7°F7.6°C 73% 1.3 mph S2.1 kmh S 3.1 mph5.0 kmh 29.59 in1002.0 mb 0.00 in0.0 mm 0.00 in0.0 mm 0.28 in7.1 mm
04:09 PM 54.1°F12.3°C 45.7°F7.6°C 73% 4.3 mph SW6.9 kmh SW 6.7 mph10.8 kmh 29.58 in1001.7 mb 0.00 in0.0 mm 0.00 in0.0 mm 0.28 in7.1 mm
04:14 PM 54.0°F12.2°C 45.9°F7.7°C 74% 2.5 mph SW4.0 kmh SW 5.1 mph8.2 kmh 29.60 in1002.4 mb 0.00 in0.0 mm 0.00 in0.0 mm 0.28 in7.1 mm
04:19 PM 54.0°F12.2°C 45.9°F7.7°C 74% 2.0 mph NW3.2 kmh NW 5.6 mph9.0 kmh 29.60 in1002.4 mb 0.00 in0.0 mm 0.00 in0.0 mm 0.28 in7.1 mm
04:24 PM 54.0°F12.2°C 45.9°F7.7°C 74% 2.9 mph S4.7 kmh S 4.5 mph7.2 kmh 29.60 in1002.4 mb 0.00 in0.0 mm 0.00 in0.0 mm 0.28 in7.1 mm
04:29 PM 53.8°F12.1°C 45.7°F7.6°C 74% 2.7 mph SSW4.3 kmh SSW 6.3 mph10.1 kmh 29.59 in1002.0 mb 0.00 in0.0 mm 0.00 in0.0 mm 0.28 in7.1 mm
04:34 PM 53.6°F12.0°C 45.5°F7.5°C 74% 1.3 mph SW2.1 kmh SW 3.6 mph5.8 kmh 29.59 in1002.0 mb 0.00 in0.0 mm 0.00 in0.0 mm 0.28 in7.1 mm
04:39 PM 53.4°F11.9°C 45.7°F7.6°C 75% 2.7 mph S4.3 kmh S 4.7 mph7.6 kmh 29.58 in1001.7 mb 0.00 in0.0 mm 0.00 in0.0 mm 0.28 in7.1 mm
04:44 PM 53.4°F11.9°C 45.3°F7.4°C 74% 1.6 mph WNW2.6 kmh WNW 2.5 mph4.0 kmh 29.59 in1002.0 mb 0.00 in0.0 mm 0.00 in0.0 mm 0.28 in7.1 mm
04:49 PM 53.2°F11.8°C 44.8°F7.1°C 73% 10.1 mph N16.3 kmh N 15.9 mph25.6 kmh 29.60 in1002.4 mb 0.00 in0.0 mm 0.00 in0.0 mm 0.28 in7.1 mm
04:54 PM 50.9°F10.5°C 42.6°F5.9°C 73% 7.2 mph N11.6 kmh N 18.1 mph29.1 kmh 29.61 in1002.7 mb 0.00 in0.0 mm 0.00 in0.0 mm 0.28 in7.1 mm
04:59 PM 49.1°F9.5°C 41.9°F5.5°C 76% 2.2 mph NNW3.5 kmh NNW 4.3 mph6.9 kmh 29.61 in1002.7 mb 0.02 in0.5 mm 0.24 in6.1 mm 0.30 in7.6 mm
05:04 PM 48.7°F9.3°C 42.4°F5.8°C 79% 2.7 mph NNW4.3 kmh NNW 4.7 mph7.6 kmh 29.62 in1003.0 mb 0.01 in0.3 mm 0.00 in0.0 mm 0.30 in7.6 mm
05:09 PM 47.8°F8.8°C 42.3°F5.7°C 81% 2.5 mph NNW4.0 kmh NNW 5.4 mph8.7 kmh 29.64 in1003.7 mb 0.02 in0.5 mm 0.12 in3.0 mm 0.32 in8.1 mm
05:14 PM 46.6°F8.1°C 41.4°F5.2°C 82% 4.3 mph NNW6.9 kmh NNW 8.7 mph14.0 kmh 29.65 in1004.1 mb 0.07 in1.8 mm 0.60 in15.2 mm 0.37 in9.4 mm
05:19 PM 45.3°F7.4°C 41.4°F5.2°C 86% 4.5 mph WNW7.2 kmh WNW 13.2 mph21.2 kmh 29.65 in1004.1 mb 0.10 in2.5 mm 0.36 in9.1 mm 0.40 in10.2 mm
05:24 PM 44.8°F7.1°C 41.7°F5.4°C 89% 5.1 mph WSW8.2 kmh WSW 10.5 mph16.9 kmh 29.66 in1004.4 mb 0.12 in3.0 mm 0.24 in6.1 mm 0.42 in10.7 mm
05:29 PM 44.6°F7.0°C 41.9°F5.5°C 90% 1.8 mph WNW2.9 kmh WNW 3.8 mph6.1 kmh 29.66 in1004.4 mb 0.14 in3.6 mm 0.24 in6.1 mm 0.44 in11.2 mm
05:34 PM 44.6°F7.0°C 41.9°F5.5°C 90% 0.7 mph ESE1.1 kmh ESE 2.0 mph3.2 kmh 29.66 in1004.4 mb 0.17 in4.3 mm 0.36 in9.1 mm 0.47 in11.9 mm
05:39 PM 44.6°F7.0°C 41.9°F5.5°C 90% 1.6 mph SE2.6 kmh SE 3.8 mph6.1 kmh 29.65 in1004.1 mb 0.19 in4.8 mm 0.24 in6.1 mm 0.49 in12.4 mm
05:44 PM 44.2°F6.8°C 41.5°F5.3°C 90% 2.5 mph NNW4.0 kmh NNW 5.6 mph9.0 kmh 29.65 in1004.1 mb 0.20 in5.1 mm 0.12 in3.0 mm 0.50 in12.7 mm
05:49 PM 44.2°F6.8°C 41.5°F5.3°C 90% 2.0 mph SSW3.2 kmh SSW 5.6 mph9.0 kmh 29.65 in1004.1 mb 0.21 in5.3 mm 0.12 in3.0 mm 0.51 in13.0 mm
05:54 PM 44.2°F6.8°C 41.5°F5.3°C 90% 1.1 mph S1.8 kmh S 2.9 mph4.7 kmh 29.65 in1004.1 mb 0.21 in5.3 mm 0.00 in0.0 mm 0.51 in13.0 mm
05:59 PM 44.2°F6.8°C 41.5°F5.3°C 90% 1.8 mph NNW2.9 kmh NNW 3.6 mph5.8 kmh 29.65 in1004.1 mb 0.21 in5.3 mm 0.00 in0.0 mm 0.51 in13.0 mm
06:04 PM 44.4°F6.9°C 41.7°F5.4°C 90% 0.4 mph SW0.6 kmh SW 1.6 mph2.6 kmh 29.65 in1004.1 mb 0.20 in5.1 mm 0.00 in0.0 mm 0.51 in13.0 mm
06:09 PM 44.4°F6.9°C 41.7°F5.4°C 90% 2.2 mph SW3.5 kmh SW 4.0 mph6.4 kmh 29.65 in1004.1 mb 0.18 in4.6 mm 0.00 in0.0 mm 0.51 in13.0 mm
06:14 PM 44.6°F7.0°C 41.9°F5.5°C 90% 2.0 mph SW3.2 kmh SW 3.8 mph6.1 kmh 29.65 in1004.1 mb 0.13 in3.3 mm 0.00 in0.0 mm 0.51 in13.0 mm
06:19 PM 44.6°F7.0°C 41.9°F5.5°C 90% 3.4 mph NW5.5 kmh NW 5.4 mph8.7 kmh 29.65 in1004.1 mb 0.11 in2.8 mm 0.00 in0.0 mm 0.51 in13.0 mm
06:24 PM 44.4°F6.9°C 41.7°F5.4°C 90% 0.2 mph S0.3 kmh S 1.1 mph1.8 kmh 29.65 in1004.1 mb 0.09 in2.3 mm 0.00 in0.0 mm 0.51 in13.0 mm
06:29 PM 44.4°F6.9°C 41.7°F5.4°C 90% 1.8 mph S2.9 kmh S 2.5 mph4.0 kmh 29.65 in1004.1 mb 0.06 in1.5 mm 0.00 in0.0 mm 0.51 in13.0 mm
06:34 PM 44.4°F6.9°C 41.7°F5.4°C 90% 2.0 mph S3.2 kmh S 2.7 mph4.3 kmh 29.65 in1004.1 mb 0.04 in1.0 mm 0.00 in0.0 mm 0.51 in13.0 mm
06:39 PM 44.6°F7.0°C 41.9°F5.5°C 90% 2.0 mph SW3.2 kmh SW 3.8 mph6.1 kmh 29.65 in1004.1 mb 0.01 in0.3 mm 0.00 in0.0 mm 0.51 in13.0 mm
06:44 PM 44.6°F7.0°C 41.9°F5.5°C 90% 3.1 mph WSW5.0 kmh WSW 7.2 mph11.6 kmh 29.65 in1004.1 mb 0.01 in0.3 mm 0.00 in0.0 mm 0.51 in13.0 mm
06:49 PM 44.6°F7.0°C 41.9°F5.5°C 90% 1.1 mph N1.8 kmh N 3.1 mph5.0 kmh 29.65 in1004.1 mb 0.02 in0.5 mm 0.12 in3.0 mm 0.53 in13.5 mm
06:54 PM 44.4°F6.9°C 41.9°F5.5°C 91% 7.6 mph W12.2 kmh W 12.3 mph19.8 kmh 29.66 in1004.4 mb 0.03 in0.8 mm 0.12 in3.0 mm 0.54 in13.7 mm
06:59 PM 43.7°F6.5°C 41.2°F5.1°C 91% 8.7 mph W14.0 kmh W 12.3 mph19.8 kmh 29.68 in1005.1 mb 0.05 in1.3 mm 0.24 in6.1 mm 0.56 in14.2 mm
07:04 PM 43.2°F6.2°C 41.4°F5.2°C 93% 5.1 mph N8.2 kmh N 11.0 mph17.7 kmh 29.67 in1004.7 mb 0.07 in1.8 mm 0.02 in0.5 mm 0.56 in14.2 mm
07:09 PM 43.2°F6.2°C 41.4°F5.2°C 93% 4.0 mph N6.4 kmh N 12.3 mph19.8 kmh 29.67 in1004.7 mb 0.01 in0.3 mm 0.00 in0.0 mm 0.57 in14.5 mm
07:14 PM 43.2°F6.2°C 41.4°F5.2°C 93% 4.0 mph N6.4 kmh N 8.3 mph13.4 kmh 29.68 in1005.1 mb 0.04 in1.0 mm 0.36 in9.1 mm 0.60 in15.2 mm
07:19 PM 43.0°F6.1°C 40.5°F4.7°C 91% 3.4 mph NW5.5 kmh NW 6.3 mph10.1 kmh 29.68 in1005.1 mb 0.05 in1.3 mm 0.12 in3.0 mm 0.61 in15.5 mm
07:24 PM 43.2°F6.2°C 40.6°F4.8°C 91% 2.2 mph N3.5 kmh N 4.7 mph7.6 kmh 29.68 in1005.1 mb 0.06 in1.5 mm 0.12 in3.0 mm 0.62 in15.7 mm
07:29 PM 43.2°F6.2°C 40.6°F4.8°C 91% 2.2 mph NE3.5 kmh NE 4.0 mph6.4 kmh 29.69 in1005.4 mb 0.07 in1.8 mm 0.12 in3.0 mm 0.63 in16.0 mm
07:34 PM 43.0°F6.1°C 40.5°F4.7°C 91% 3.8 mph N6.1 kmh N 8.7 mph14.0 kmh 29.69 in1005.4 mb 0.09 in2.3 mm 0.24 in6.1 mm 0.65 in16.5 mm
07:39 PM 42.8°F6.0°C 40.3°F4.6°C 91% 3.8 mph N6.1 kmh N 7.4 mph11.9 kmh 29.69 in1005.4 mb 0.10 in2.5 mm 0.12 in3.0 mm 0.66 in16.8 mm
07:44 PM 42.6°F5.9°C 39.9°F4.4°C 90% 6.0 mph NW9.7 kmh NW 11.0 mph17.7 kmh 29.70 in1005.8 mb 0.12 in3.0 mm 0.24 in6.1 mm 0.68 in17.3 mm
07:49 PM 42.4°F5.8°C 39.9°F4.4°C 91% 4.0 mph N6.4 kmh N 6.9 mph11.1 kmh 29.70 in1005.8 mb 0.13 in3.3 mm 0.12 in3.0 mm 0.69 in17.5 mm
07:54 PM 42.4°F5.8°C 39.9°F4.4°C 91% 3.8 mph NW6.1 kmh NW 8.9 mph14.3 kmh 29.70 in1005.8 mb 0.14 in3.6 mm 0.12 in3.0 mm 0.70 in17.8 mm
07:59 PM 42.6°F5.9°C 40.1°F4.5°C 91% 5.4 mph N8.7 kmh N 12.8 mph20.6 kmh 29.71 in1006.1 mb 0.14 in3.6 mm 0.00 in0.0 mm 0.70 in17.8 mm
08:04 PM 42.4°F5.8°C 39.7°F4.3°C 90% 5.1 mph NW8.2 kmh NW 13.0 mph20.9 kmh 29.71 in1006.1 mb 0.12 in3.0 mm 0.00 in0.0 mm 0.70 in17.8 mm
08:09 PM 42.4°F5.8°C 39.7°F4.3°C 90% 7.6 mph NNW12.2 kmh NNW 13.9 mph22.4 kmh 29.72 in1006.4 mb 0.11 in2.8 mm 0.00 in0.0 mm 0.70 in17.8 mm
08:14 PM 42.3°F5.7°C 39.2°F4.0°C 89% 6.7 mph NNW10.8 kmh NNW 15.2 mph24.5 kmh 29.73 in1006.8 mb 0.09 in2.3 mm 0.00 in0.0 mm 0.70 in17.8 mm
08:19 PM 41.9°F5.5°C 38.8°F3.8°C 89% 3.8 mph NW6.1 kmh NW 7.8 mph12.6 kmh 29.73 in1006.8 mb 0.08 in2.0 mm 0.00 in0.0 mm 0.70 in17.8 mm
08:24 PM 41.7°F5.4°C 38.1°F3.4°C 87% 6.3 mph NW10.1 kmh NW 13.9 mph22.4 kmh 29.73 in1006.8 mb 0.07 in1.8 mm 0.00 in0.0 mm 0.70 in17.8 mm
08:29 PM 41.4°F5.2°C 37.8°F3.2°C 87% 6.3 mph NNW10.1 kmh NNW 22.1 mph35.6 kmh 29.73 in1006.8 mb 0.06 in1.5 mm 0.00 in0.0 mm 0.70 in17.8 mm
08:34 PM 41.0°F5.0°C 37.2°F2.9°C 86% 5.1 mph NNW8.2 kmh NNW 9.6 mph15.4 kmh 29.74 in1007.1 mb 0.05 in1.3 mm 0.00 in0.0 mm 0.70 in17.8 mm
08:39 PM 40.8°F4.9°C 36.7°F2.6°C 85% 6.7 mph W10.8 kmh W 15.4 mph24.8 kmh 29.75 in1007.5 mb 0.03 in0.8 mm 0.00 in0.0 mm 0.70 in17.8 mm
08:44 PM 40.6°F4.8°C 36.5°F2.5°C 85% 6.3 mph NW10.1 kmh NW 15.0 mph24.1 kmh 29.75 in1007.5 mb 0.01 in0.3 mm 0.00 in0.0 mm 0.70 in17.8 mm
08:49 PM 40.5°F4.7°C 36.0°F2.2°C 84% 6.7 mph NW10.8 kmh NW 12.5 mph20.1 kmh 29.76 in1007.8 mb 0.00 in0.0 mm 0.00 in0.0 mm 0.70 in17.8 mm
08:54 PM 40.6°F4.8°C 36.5°F2.5°C 85% 5.6 mph NNW9.0 kmh NNW 18.1 mph29.1 kmh 29.76 in1007.8 mb 0.00 in0.0 mm 0.00 in0.0 mm 0.70 in17.8 mm
08:59 PM 40.5°F4.7°C 36.3°F2.4°C 85% 4.7 mph NW7.6 kmh NW 9.2 mph14.8 kmh 29.77 in1008.1 mb 0.00 in0.0 mm 0.00 in0.0 mm 0.70 in17.8 mm
09:04 PM 40.5°F4.7°C 36.3°F2.4°C 85% 5.6 mph NW9.0 kmh NW 12.5 mph20.1 kmh 29.77 in1008.1 mb 0.00 in0.0 mm 0.00 in0.0 mm 0.70 in17.8 mm
09:09 PM 40.5°F4.7°C 36.3°F2.4°C 85% 4.7 mph NW7.6 kmh NW 11.2 mph18.0 kmh 29.78 in1008.5 mb 0.00 in0.0 mm 0.00 in0.0 mm 0.70 in17.8 mm
09:14 PM 40.1°F4.5°C 36.3°F2.4°C 86% 3.4 mph NW5.5 kmh NW 7.2 mph11.6 kmh 29.78 in1008.5 mb 0.00 in0.0 mm 0.00 in0.0 mm 0.70 in17.8 mm
09:19 PM 40.3°F4.6°C 36.5°F2.5°C 86% 4.9 mph NW7.9 kmh NW 9.4 mph15.1 kmh 29.78 in1008.5 mb 0.00 in0.0 mm 0.00 in0.0 mm 0.70 in17.8 mm
09:24 PM 40.3°F4.6°C 36.5°F2.5°C 86% 4.7 mph NNW7.6 kmh NNW 8.7 mph14.0 kmh 29.79 in1008.8 mb 0.00 in0.0 mm 0.00 in0.0 mm 0.70 in17.8 mm
09:29 PM 40.1°F4.5°C 36.3°F2.4°C 86% 5.8 mph NW9.3 kmh NW 10.5 mph16.9 kmh 29.79 in1008.8 mb 0.00 in0.0 mm 0.00 in0.0 mm 0.70 in17.8 mm
09:34 PM 40.1°F4.5°C 36.0°F2.2°C 85% 4.5 mph NNW7.2 kmh NNW 7.4 mph11.9 kmh 29.79 in1008.8 mb 0.00 in0.0 mm 0.00 in0.0 mm 0.70 in17.8 mm
09:39 PM 39.9°F4.4°C 36.1°F2.3°C 86% 3.1 mph N5.0 kmh N 5.6 mph9.0 kmh 29.79 in1008.8 mb 0.00 in0.0 mm 0.00 in0.0 mm 0.70 in17.8 mm
09:44 PM 39.9°F4.4°C 36.1°F2.3°C 86% 4.3 mph N6.9 kmh N 6.7 mph10.8 kmh 29.79 in1008.8 mb 0.00 in0.0 mm 0.00 in0.0 mm 0.70 in17.8 mm
09:49 PM 39.7°F4.3°C 35.6°F2.0°C 85% 6.0 mph N9.7 kmh N 9.6 mph15.4 kmh 29.80 in1009.1 mb 0.00 in0.0 mm 0.00 in0.0 mm 0.70 in17.8 mm
09:54 PM 39.7°F4.3°C 35.2°F1.8°C 84% 3.6 mph NW5.8 kmh NW 8.9 mph14.3 kmh 29.80 in1009.1 mb 0.00 in0.0 mm 0.00 in0.0 mm 0.70 in17.8 mm
09:59 PM 39.7°F4.3°C 34.7°F1.5°C 82% 4.9 mph NW7.9 kmh NW 8.7 mph14.0 kmh 29.81 in1009.5 mb 0.00 in0.0 mm 0.00 in0.0 mm 0.70 in17.8 mm
10:04 PM 39.6°F4.2°C 34.5°F1.4°C 82% 4.3 mph NW6.9 kmh NW 12.1 mph19.5 kmh 29.81 in1009.5 mb 0.00 in0.0 mm 0.00 in0.0 mm 0.70 in17.8 mm
10:09 PM 39.6°F4.2°C 34.2°F1.2°C 81% 4.0 mph NW6.4 kmh NW 7.8 mph12.6 kmh 29.82 in1009.8 mb 0.00 in0.0 mm 0.00 in0.0 mm 0.70 in17.8 mm
10:14 PM 39.6°F4.2°C 34.0°F1.1°C 80% 4.3 mph NW6.9 kmh NW 7.8 mph12.6 kmh 29.82 in1009.8 mb 0.00 in0.0 mm 0.00 in0.0 mm 0.70 in17.8 mm
10:19 PM 39.7°F4.3°C 33.8°F1.0°C 79% 4.0 mph N6.4 kmh N 8.5 mph13.7 kmh 29.82 in1009.8 mb 0.00 in0.0 mm 0.00 in0.0 mm 0.70 in17.8 mm
10:24 PM 39.7°F4.3°C 33.1°F0.6°C 77% 4.7 mph N7.6 kmh N 7.6 mph12.2 kmh 29.82 in1009.8 mb 0.00 in0.0 mm 0.00 in0.0 mm 0.70 in17.8 mm
10:29 PM 39.6°F4.2°C 32.9°F0.5°C 77% 3.1 mph NW5.0 kmh NW 6.0 mph9.7 kmh 29.83 in1010.2 mb 0.00 in0.0 mm 0.00 in0.0 mm 0.70 in17.8 mm
10:34 PM 39.4°F4.1°C 32.4°F0.2°C 76% 4.0 mph NNW6.4 kmh NNW 8.5 mph13.7 kmh 29.83 in1010.2 mb 0.00 in0.0 mm 0.00 in0.0 mm 0.70 in17.8 mm
10:39 PM 39.4°F4.1°C 32.7°F0.4°C 77% 2.7 mph N4.3 kmh N 5.1 mph8.2 kmh 29.83 in1010.2 mb 0.00 in0.0 mm 0.00 in0.0 mm 0.70 in17.8 mm
10:44 PM 39.2°F4.0°C 32.4°F0.2°C 76% 4.7 mph WNW7.6 kmh WNW 10.3 mph16.6 kmh 29.83 in1010.2 mb 0.00 in0.0 mm 0.00 in0.0 mm 0.70 in17.8 mm
10:49 PM 39.2°F4.0°C 32.4°F0.2°C 76% 6.3 mph NNW10.1 kmh NNW 11.0 mph17.7 kmh 29.83 in1010.2 mb 0.00 in0.0 mm 0.00 in0.0 mm 0.70 in17.8 mm
10:54 PM 39.2°F4.0°C 32.4°F0.2°C 76% 3.1 mph N5.0 kmh N 6.3 mph10.1 kmh 29.83 in1010.2 mb 0.00 in0.0 mm 0.00 in0.0 mm 0.70 in17.8 mm
10:59 PM 39.2°F4.0°C 32.4°F0.2°C 76% 1.8 mph NW2.9 kmh NW 3.6 mph5.8 kmh 29.83 in1010.2 mb 0.00 in0.0 mm 0.00 in0.0 mm 0.70 in17.8 mm
11:04 PM 39.2°F4.0°C 32.4°F0.2°C 76% 3.6 mph WSW5.8 kmh WSW 7.2 mph11.6 kmh 29.83 in1010.2 mb 0.00 in0.0 mm 0.00 in0.0 mm 0.70 in17.8 mm
11:09 PM 39.2°F4.0°C 32.5°F0.3°C 77% 2.9 mph NW4.7 kmh NW 6.9 mph11.1 kmh 29.83 in1010.2 mb 0.00 in0.0 mm 0.00 in0.0 mm 0.70 in17.8 mm
11:14 PM 39.4°F4.1°C 32.7°F0.4°C 77% 5.1 mph NW8.2 kmh NW 10.5 mph16.9 kmh 29.83 in1010.2 mb 0.00 in0.0 mm 0.00 in0.0 mm 0.70 in17.8 mm
11:19 PM 39.4°F4.1°C 32.4°F0.2°C 76% 3.4 mph WNW5.5 kmh WNW 6.7 mph10.8 kmh 29.83 in1010.2 mb 0.00 in0.0 mm 0.00 in0.0 mm 0.70 in17.8 mm
11:24 PM 39.4°F4.1°C 32.7°F0.4°C 77% 4.0 mph WSW6.4 kmh WSW 11.0 mph17.7 kmh 29.83 in1010.2 mb 0.00 in0.0 mm 0.00 in0.0 mm 0.70 in17.8 mm
11:29 PM 39.4°F4.1°C 32.7°F0.4°C 77% 3.4 mph N5.5 kmh N 6.3 mph10.1 kmh 29.82 in1009.8 mb 0.00 in0.0 mm 0.00 in0.0 mm 0.70 in17.8 mm
11:34 PM 39.2°F4.0°C 32.5°F0.3°C 77% 2.0 mph NW3.2 kmh NW 5.4 mph8.7 kmh 29.83 in1010.2 mb 0.00 in0.0 mm 0.00 in0.0 mm 0.70 in17.8 mm
11:39 PM 39.2°F4.0°C 32.5°F0.3°C 77% 5.1 mph WSW8.2 kmh WSW 12.3 mph19.8 kmh 29.83 in1010.2 mb 0.00 in0.0 mm 0.00 in0.0 mm 0.70 in17.8 mm
11:44 PM 39.2°F4.0°C 32.5°F0.3°C 77% 2.9 mph WSW4.7 kmh WSW 6.5 mph10.5 kmh 29.83 in1010.2 mb 0.00 in0.0 mm 0.00 in0.0 mm 0.70 in17.8 mm
11:49 PM 39.2°F4.0°C 32.5°F0.3°C 77% 1.8 mph SW2.9 kmh SW 5.6 mph9.0 kmh 29.83 in1010.2 mb 0.00 in0.0 mm 0.00 in0.0 mm 0.70 in17.8 mm
11:54 PM 39.2°F4.0°C 32.5°F0.3°C 77% 3.1 mph NW5.0 kmh NW 8.3 mph13.4 kmh 29.83 in1010.2 mb 0.00 in0.0 mm 0.00 in0.0 mm 0.70 in17.8 mm
11:59 PM 39.2°F4.0°C 32.5°F0.3°C 77% 3.8 mph W6.1 kmh W 5.8 mph9.3 kmh 29.83 in1010.2 mb 0.00 in0.0 mm 0.00 in0.0 mm 0.70 in17.8 mm